Time;durP1;ratioP1;P1;durP2;ratioP2;P2;SDS_P1;SDS_P2;PMS_P1;PMS_P2;Temp;Humidity;BMP_temperature;BMP_pressure;BME280_temperature;BME280_humidity;BME280_pressure;Samples;Min_cycle;Max_cycle;Signal;HPM_P1;HPM_P2
2021/10/20 00:02:12;;;;;;;;;;;14.60;99.90;;;;;;4977353;28;842;-48
2021/10/20 00:04:38;;;;;;;;;;;14.60;99.90;;;;;;4977640;28;833;-48
2021/10/20 00:07:04;;;;;;;;;;;14.60;99.90;;;;;;4977354;28;911;-48
2021/10/20 00:09:30;;;;;;;;;;;14.60;99.90;;;;;;4977463;28;802;-48
2021/10/20 00:11:56;;;;;;;;;;;14.60;99.90;;;;;;4976881;28;1051;-47
2021/10/20 00:14:24;;;;;;;;;;;14.60;99.90;;;;;;4977552;28;850;-48
2021/10/20 00:16:52;;;;;;;;;;;14.60;99.90;;;;;;4977729;28;1911;-48
2021/10/20 00:19:19;;;;;;;;;;;14.50;99.90;;;;;;4977500;28;861;-48
2021/10/20 00:21:45;;;;;;;;;;;14.50;99.90;;;;;;4977505;28;759;-47
2021/10/20 00:24:11;;;;;;;;;;;14.50;99.90;;;;;;4976244;28;964;-47
2021/10/20 00:26:37;;;;;;;;;;;14.50;99.90;;;;;;4977295;28;827;-47
2021/10/20 00:29:03;;;;;;;;;;;14.50;99.90;;;;;;4977266;28;766;-48
2021/10/20 00:31:29;;;;;;;;;;;14.50;99.90;;;;;;4976990;28;1027;-47
2021/10/20 00:33:55;;;;;;;;;;;14.50;99.90;;;;;;4977142;28;817;-47
2021/10/20 00:36:22;;;;;;;;;;;14.50;99.90;;;;;;4985248;28;1899;-47
2021/10/20 00:38:50;;;;;;;;;;;14.50;99.90;;;;;;4996625;28;830;-48
2021/10/20 00:41:16;;;;;;;;;;;14.50;99.90;;;;;;4981558;28;809;-47
2021/10/20 00:43:42;;;;;;;;;;;14.50;99.90;;;;;;4976961;28;908;-47
2021/10/20 00:46:08;;;;;;;;;;;14.50;99.90;;;;;;4980537;28;861;-47
2021/10/20 00:48:35;;;;;;;;;;;14.50;99.90;;;;;;4981288;28;850;-47
2021/10/20 00:51:01;;;;;;;;;;;14.50;99.90;;;;;;4980706;28;825;-47
2021/10/20 00:53:26;;;;;;;;;;;14.50;99.90;;;;;;4977976;28;1319;-48
2021/10/20 00:55:53;;;;;;;;;;;14.50;99.90;;;;;;4961294;28;1977;-47
2021/10/20 00:58:21;;;;;;;;;;;14.50;99.90;;;;;;4961221;28;882;-47
2021/10/20 01:00:48;;;;;;;;;;;14.50;99.90;;;;;;4961459;28;795;-47
2021/10/20 01:03:14;;;;;;;;;;;14.50;99.90;;;;;;4961428;28;897;-48
2021/10/20 01:05:40;;;;;;;;;;;14.50;99.90;;;;;;4961930;28;1010;-47
2021/10/20 01:08:06;;;;;;;;;;;14.50;99.90;;;;;;4961551;28;853;-48
2021/10/20 01:10:32;;;;;;;;;;;14.50;99.90;;;;;;4970018;28;1172;-47
2021/10/20 01:12:58;;;;;;;;;;;14.50;99.90;;;;;;4980644;28;1182;-47
2021/10/20 01:15:27;;;;;;;;;;;14.60;99.90;;;;;;4980133;28;1902;-48
2021/10/20 01:17:54;;;;;;;;;;;14.50;99.90;;;;;;4980209;28;790;-47
2021/10/20 01:20:25;;;;;;;;;;;14.50;99.90;;;;;;4980170;28;821;-48
2021/10/20 01:22:53;;;;;;;;;;;14.50;99.90;;;;;;4980391;28;901;-47
2021/10/20 01:25:21;;;;;;;;;;;14.50;99.90;;;;;;4980341;28;806;-47
2021/10/20 01:27:47;;;;;;;;;;;14.50;99.90;;;;;;4978484;28;1146;-47
2021/10/20 01:30:13;;;;;;;;;;;14.60;99.90;;;;;;4980203;28;818;-47
2021/10/20 01:32:39;;;;;;;;;;;14.50;99.90;;;;;;4980376;28;902;-47
2021/10/20 01:35:05;;;;;;;;;;;14.60;99.90;;;;;;4980024;28;1962;-47
2021/10/20 01:37:31;;;;;;;;;;;14.60;99.90;;;;;;4997216;28;1138;-47
2021/10/20 01:39:58;;;;;;;;;;;14.50;99.90;;;;;;4993708;28;902;-48
2021/10/20 01:42:26;;;;;;;;;;;14.50;99.90;;;;;;4979645;28;809;-47
2021/10/20 01:44:53;;;;;;;;;;;14.50;99.90;;;;;;4979684;28;766;-48
2021/10/20 01:47:21;;;;;;;;;;;14.60;99.90;;;;;;4979929;28;835;-48
2021/10/20 01:49:47;;;;;;;;;;;14.50;99.90;;;;;;4980422;28;826;-48
2021/10/20 01:52:13;;;;;;;;;;;14.60;99.90;;;;;;4979785;28;807;-48
2021/10/20 01:54:39;;;;;;;;;;;14.50;99.90;;;;;;4979704;28;851;-47
2021/10/20 01:57:05;;;;;;;;;;;14.60;99.90;;;;;;4978077;28;1985;-47
2021/10/20 01:59:31;;;;;;;;;;;14.50;99.90;;;;;;4979216;28;996;-48
2021/10/20 02:01:58;;;;;;;;;;;14.60;99.90;;;;;;4979683;28;904;-47
2021/10/20 02:04:26;;;;;;;;;;;14.50;99.90;;;;;;4979917;28;747;-47
2021/10/20 02:06:52;;;;;;;;;;;14.60;99.90;;;;;;4979293;28;783;-48
2021/10/20 02:09:19;;;;;;;;;;;14.60;99.90;;;;;;4979802;28;805;-48
2021/10/20 02:11:45;;;;;;;;;;;14.60;99.90;;;;;;4978928;28;1281;-47
2021/10/20 02:14:12;;;;;;;;;;;14.60;99.90;;;;;;4979237;28;775;-48
2021/10/20 02:16:38;;;;;;;;;;;14.60;99.90;;;;;;4979336;28;1914;-48
2021/10/20 02:19:04;;;;;;;;;;;14.50;99.90;;;;;;4979355;28;967;-48
2021/10/20 02:21:30;;;;;;;;;;;14.60;99.90;;;;;;4979235;28;1032;-48
2021/10/20 02:23:57;;;;;;;;;;;14.50;99.90;;;;;;4979210;28;775;-47
2021/10/20 02:26:25;;;;;;;;;;;14.60;99.90;;;;;;4978866;28;1043;-47
2021/10/20 02:28:50;;;;;;;;;;;14.60;99.90;;;;;;4979010;28;1017;-48
2021/10/20 02:31:17;;;;;;;;;;;14.50;99.90;;;;;;4978847;28;747;-48
2021/10/20 02:33:43;;;;;;;;;;;14.60;99.90;;;;;;4978791;28;822;-47
2021/10/20 02:36:09;;;;;;;;;;;14.50;99.90;;;;;;4985327;28;1911;-47
2021/10/20 02:38:35;;;;;;;;;;;14.60;99.90;;;;;;4998569;28;1016;-47
2021/10/20 02:41:01;;;;;;;;;;;14.60;99.90;;;;;;4985116;28;1106;-47
2021/10/20 02:43:28;;;;;;;;;;;14.50;99.90;;;;;;4978755;28;864;-47
2021/10/20 02:45:54;;;;;;;;;;;14.50;99.90;;;;;;4978584;28;821;-47
2021/10/20 02:48:20;;;;;;;;;;;14.50;99.90;;;;;;4978726;28;875;-47
2021/10/20 02:50:46;;;;;;;;;;;14.50;99.90;;;;;;4966664;28;1332;-48
2021/10/20 02:53:12;;;;;;;;;;;14.50;99.90;;;;;;4959467;28;904;-48
2021/10/20 02:55:40;;;;;;;;;;;14.50;99.90;;;;;;4959524;28;1968;-47
2021/10/20 02:58:06;;;;;;;;;;;14.50;99.90;;;;;;4958801;28;770;-48
2021/10/20 03:00:32;;;;;;;;;;;14.50;99.90;;;;;;4959289;28;924;-48
2021/10/20 03:02:59;;;;;;;;;;;14.50;99.90;;;;;;4959222;28;850;-47
2021/10/20 03:05:26;;;;;;;;;;;14.50;99.90;;;;;;4958919;28;909;-47
2021/10/20 03:07:54;;;;;;;;;;;14.50;99.90;;;;;;4958587;28;787;-47
2021/10/20 03:10:21;;;;;;;;;;;14.50;99.90;;;;;;4966592;28;1322;-47
2021/10/20 03:12:47;;;;;;;;;;;14.50;99.90;;;;;;4976623;28;951;-47
2021/10/20 03:15:13;;;;;;;;;;;14.50;99.90;;;;;;4977988;28;1963;-47
2021/10/20 03:17:40;;;;;;;;;;;14.50;99.90;;;;;;4978208;28;854;-47
2021/10/20 03:20:08;;;;;;;;;;;14.50;99.90;;;;;;4977951;28;861;-48
2021/10/20 03:22:44;;;;;;;;;;;14.50;99.90;;;;;;4978153;28;854;-48
2021/10/20 03:25:10;;;;;;;;;;;14.50;99.90;;;;;;4977818;28;1057;-47
2021/10/20 03:27:47;;;;;;;;;;;14.50;99.90;;;;;;4977581;28;766;-47
2021/10/20 03:30:14;;;;;;;;;;;14.50;99.90;;;;;;4977982;28;1026;-47
2021/10/20 03:32:40;;;;;;;;;;;14.50;99.90;;;;;;4977767;28;1091;-47
2021/10/20 03:35:06;;;;;;;;;;;14.50;99.90;;;;;;4978016;28;953;-47
2021/10/20 03:37:34;;;;;;;;;;;14.50;99.90;;;;;;4995150;28;1906;-47
2021/10/20 03:40:02;;;;;;;;;;;14.50;99.90;;;;;;4992445;28;757;-48
2021/10/20 03:42:29;;;;;;;;;;;14.50;99.90;;;;;;4976615;28;910;-47
2021/10/20 03:44:57;;;;;;;;;;;14.50;99.90;;;;;;4976282;28;1037;-47
2021/10/20 03:47:23;;;;;;;;;;;14.50;99.90;;;;;;4977574;28;841;-47
2021/10/20 03:49:49;;;;;;;;;;;14.50;99.90;;;;;;4992663;28;941;-48
2021/10/20 03:52:15;;;;;;;;;;;14.50;99.90;;;;;;4977665;28;916;-47
2021/10/20 03:54:41;;;;;;;;;;;14.50;99.90;;;;;;4977473;28;842;-47
2021/10/20 03:57:08;;;;;;;;;;;14.50;99.90;;;;;;4977312;28;1961;-47
2021/10/20 03:59:36;;;;;;;;;;;14.50;99.90;;;;;;4977506;28;813;-47
2021/10/20 04:02:03;;;;;;;;;;;14.50;99.90;;;;;;4977301;28;817;-48
2021/10/20 04:04:29;;;;;;;;;;;14.50;99.90;;;;;;4977621;28;940;-47
2021/10/20 04:06:55;;;;;;;;;;;14.50;99.90;;;;;;4977838;28;778;-47
2021/10/20 04:09:20;;;;;;;;;;;14.50;99.90;;;;;;4977341;28;830;-48
2021/10/20 04:11:46;;;;;;;;;;;14.50;99.90;;;;;;4976977;28;1029;-47
2021/10/20 04:14:12;;;;;;;;;;;14.50;99.90;;;;;;4977435;28;795;-48
2021/10/20 04:16:38;;;;;;;;;;;14.50;99.90;;;;;;4977532;28;1969;-48
2021/10/20 04:19:05;;;;;;;;;;;14.50;99.90;;;;;;4976405;28;1395;-47
2021/10/20 04:21:32;;;;;;;;;;;14.50;99.90;;;;;;4981321;28;766;-48
2021/10/20 04:23:59;;;;;;;;;;;14.50;99.90;;;;;;4990827;28;1240;-47
2021/10/20 04:26:25;;;;;;;;;;;14.50;99.90;;;;;;4997217;28;1332;-48
2021/10/20 04:28:51;;;;;;;;;;;14.50;99.90;;;;;;4983070;28;986;-48
2021/10/20 04:31:17;;;;;;;;;;;14.50;99.90;;;;;;4981324;28;845;-48
2021/10/20 04:33:43;;;;;;;;;;;14.50;99.90;;;;;;4993030;28;1255;-47
2021/10/20 04:36:09;;;;;;;;;;;14.50;99.90;;;;;;5000538;28;1973;-48
2021/10/20 04:38:36;;;;;;;;;;;14.50;99.90;;;;;;5000667;28;833;-48
2021/10/20 04:41:03;;;;;;;;;;;14.50;99.90;;;;;;4987058;28;792;-48
2021/10/20 04:43:30;;;;;;;;;;;14.50;99.90;;;;;;4979728;28;1058;-48
2021/10/20 04:45:56;;;;;;;;;;;14.50;99.90;;;;;;4991951;28;1252;-47
2021/10/20 04:48:23;;;;;;;;;;;14.50;99.90;;;;;;5000230;28;801;-47
2021/10/20 04:50:49;;;;;;;;;;;14.50;99.90;;;;;;5000366;28;901;-47
2021/10/20 04:53:15;;;;;;;;;;;14.50;99.90;;;;;;5000527;28;1120;-47
2021/10/20 04:55:41;;;;;;;;;;;14.50;99.90;;;;;;4974493;28;1907;-47
2021/10/20 04:58:08;;;;;;;;;;;14.50;99.90;;;;;;4960960;29;773;-48
2021/10/20 05:00:36;;;;;;;;;;;14.50;99.90;;;;;;4961197;28;914;-47
2021/10/20 05:03:03;;;;;;;;;;;14.50;99.90;;;;;;4961628;28;994;-48
2021/10/20 05:05:30;;;;;;;;;;;14.50;99.90;;;;;;4961384;28;791;-48
2021/10/20 05:07:58;;;;;;;;;;;14.50;99.90;;;;;;4961369;28;859;-47
2021/10/20 05:10:26;;;;;;;;;;;14.50;99.90;;;;;;4968070;28;1150;-47
2021/10/20 05:12:53;;;;;;;;;;;14.50;99.90;;;;;;4980099;28;829;-48
2021/10/20 05:15:20;;;;;;;;;;;14.50;99.90;;;;;;4980549;28;849;-47
2021/10/20 05:17:46;;;;;;;;;;;14.50;99.90;;;;;;4980152;28;1958;-47
2021/10/20 05:20:14;;;;;;;;;;;14.50;99.90;;;;;;4979579;28;849;-47
2021/10/20 05:22:41;;;;;;;;;;;14.50;99.90;;;;;;4993874;28;1211;-47
2021/10/20 05:25:08;;;;;;;;;;;14.50;99.90;;;;;;4999558;28;885;-47
2021/10/20 05:27:34;;;;;;;;;;;14.50;99.90;;;;;;4999353;28;777;-48
2021/10/20 05:30:00;;;;;;;;;;;14.50;99.90;;;;;;4999564;28;989;-47
2021/10/20 05:32:27;;;;;;;;;;;14.50;99.90;;;;;;4999478;28;776;-47
2021/10/20 05:34:53;;;;;;;;;;;14.50;99.90;;;;;;5000133;28;1459;-48
2021/10/20 05:37:21;;;;;;;;;;;14.50;99.90;;;;;;5000080;28;1965;-47
2021/10/20 05:39:48;;;;;;;;;;;14.50;99.90;;;;;;4996350;28;848;-47
2021/10/20 05:42:19;;;;;;;;;;;14.50;99.90;;;;;;4978137;28;1023;-47
2021/10/20 05:44:45;;;;;;;;;;;14.50;99.90;;;;;;4979633;28;841;-48
2021/10/20 05:47:11;;;;;;;;;;;14.50;99.90;;;;;;4979692;28;900;-47
2021/10/20 05:49:37;;;;;;;;;;;14.50;99.90;;;;;;4979639;28;920;-47
2021/10/20 05:52:04;;;;;;;;;;;14.50;99.90;;;;;;4979538;28;972;-47
2021/10/20 05:54:30;;;;;;;;;;;14.50;99.90;;;;;;4980107;28;750;-47
2021/10/20 05:56:56;;;;;;;;;;;14.50;99.90;;;;;;4979275;28;1955;-47
2021/10/20 05:59:24;;;;;;;;;;;14.50;99.90;;;;;;4979339;28;822;-47
2021/10/20 06:01:51;;;;;;;;;;;14.50;99.90;;;;;;4979859;28;794;-47
2021/10/20 06:04:18;;;;;;;;;;;14.50;99.90;;;;;;4979565;28;861;-47
2021/10/20 06:06:46;;;;;;;;;;;14.50;99.90;;;;;;4978377;28;785;-47
2021/10/20 06:09:12;;;;;;;;;;;14.50;99.90;;;;;;4979526;28;786;-48
2021/10/20 06:11:38;;;;;;;;;;;14.50;99.90;;;;;;4978838;28;981;-48
2021/10/20 06:14:04;;;;;;;;;;;14.50;99.90;;;;;;4979027;28;814;-48
2021/10/20 06:16:32;;;;;;;;;;;14.50;99.90;;;;;;4979349;28;1952;-47
2021/10/20 06:18:58;;;;;;;;;;;14.50;99.90;;;;;;4978385;28;894;-47
2021/10/20 06:21:24;;;;;;;;;;;14.50;99.90;;;;;;4982681;28;1181;-48
2021/10/20 06:23:51;;;;;;;;;;;14.50;99.90;;;;;;4998488;28;849;-48
2021/10/20 06:26:19;;;;;;;;;;;14.50;99.90;;;;;;4998524;28;1023;-47
2021/10/20 06:28:46;;;;;;;;;;;14.50;99.90;;;;;;4998514;28;805;-48
2021/10/20 06:31:13;;;;;;;;;;;14.50;99.90;;;;;;4998358;28;916;-47
2021/10/20 06:33:40;;;;;;;;;;;14.50;99.90;;;;;;4998552;28;812;-48
2021/10/20 06:36:06;;;;;;;;;;;14.50;99.90;;;;;;4998401;28;1914;-48
2021/10/20 06:38:32;;;;;;;;;;;14.60;99.90;;;;;;4998507;28;829;-48
2021/10/20 06:40:58;;;;;;;;;;;14.50;99.90;;;;;;4985583;28;963;-48
2021/10/20 06:43:25;;;;;;;;;;;14.50;99.90;;;;;;4977767;28;865;-47
2021/10/20 06:45:52;;;;;;;;;;;14.60;99.90;;;;;;4977504;28;1329;-48
2021/10/20 06:48:19;;;;;;;;;;;14.60;99.90;;;;;;4978818;28;854;-47
2021/10/20 06:50:45;;;;;;;;;;;14.60;99.90;;;;;;4977766;28;920;-47
2021/10/20 06:53:11;;;;;;;;;;;14.60;99.90;;;;;;4993329;28;873;-48
2021/10/20 06:55:37;;;;;;;;;;;14.60;99.90;;;;;;4977300;28;920;-47
2021/10/20 06:58:03;;;;;;;;;;;14.60;99.90;;;;;;4976356;28;1899;-47
2021/10/20 07:00:29;;;;;;;;;;;14.60;99.90;;;;;;4976782;28;793;-48
2021/10/20 07:02:56;;;;;;;;;;;14.60;99.90;;;;;;4976623;28;932;-47
2021/10/20 07:05:24;;;;;;;;;;;14.60;99.90;;;;;;4976879;28;830;-47
2021/10/20 07:07:51;;;;;;;;;;;14.60;99.90;;;;;;4977386;28;1006;-47
2021/10/20 07:10:17;;;;;;;;;;;14.60;99.90;;;;;;4976334;28;1135;-47
2021/10/20 07:12:43;;;;;;;;;;;14.60;99.90;;;;;;4976659;28;775;-47
2021/10/20 07:15:09;;;;;;;;;;;14.60;99.90;;;;;;4976326;28;949;-48
2021/10/20 07:17:36;;;;;;;;;;;14.70;99.90;;;;;;4976319;28;1906;-48
2021/10/20 07:20:02;;;;;;;;;;;14.60;99.90;;;;;;4976341;28;948;-47
2021/10/20 07:22:28;;;;;;;;;;;14.70;99.90;;;;;;4989926;28;1237;-48
2021/10/20 07:24:55;;;;;;;;;;;14.70;99.90;;;;;;4998372;28;1050;-47
2021/10/20 07:27:25;;;;;;;;;;;14.70;99.90;;;;;;4997468;28;826;-47
2021/10/20 07:29:52;;;;;;;;;;;14.70;99.90;;;;;;4997028;28;955;-47
2021/10/20 07:32:18;;;;;;;;;;;14.70;99.90;;;;;;4997736;28;753;-46
2021/10/20 07:34:44;;;;;;;;;;;14.80;99.90;;;;;;4997223;28;841;-47
2021/10/20 07:37:10;;;;;;;;;;;14.80;99.90;;;;;;4996068;28;1906;-47
2021/10/20 07:39:36;;;;;;;;;;;14.80;99.90;;;;;;4995559;28;989;-47
2021/10/20 07:42:02;;;;;;;;;;;14.90;99.90;;;;;;4977532;28;825;-47
2021/10/20 07:44:29;;;;;;;;;;;14.90;99.90;;;;;;4977747;28;889;-46
2021/10/20 07:46:56;;;;;;;;;;;14.90;99.90;;;;;;4977506;28;925;-47
2021/10/20 07:49:23;;;;;;;;;;;14.80;99.90;;;;;;4978014;28;774;-46
2021/10/20 07:51:51;;;;;;;;;;;14.80;99.90;;;;;;4977413;28;1004;-47
2021/10/20 07:54:17;;;;;;;;;;;14.80;99.90;;;;;;4976768;28;877;-47
2021/10/20 07:56:43;;;;;;;;;;;14.80;99.90;;;;;;4977252;28;1968;-46
2021/10/20 07:59:09;;;;;;;;;;;14.80;99.90;;;;;;4977153;28;1135;-47
2021/10/20 08:01:35;;;;;;;;;;;14.80;99.90;;;;;;4977897;28;875;-47
2021/10/20 08:04:01;;;;;;;;;;;14.90;99.90;;;;;;4977432;28;766;-47
2021/10/20 08:06:29;;;;;;;;;;;14.80;99.90;;;;;;4977362;28;837;-47
2021/10/20 08:08:56;;;;;;;;;;;14.80;99.90;;;;;;4977585;28;798;-47
2021/10/20 08:11:22;;;;;;;;;;;14.90;99.90;;;;;;4976962;28;1254;-47
2021/10/20 08:13:48;;;;;;;;;;;14.80;99.90;;;;;;4977097;28;944;-47
2021/10/20 08:16:14;;;;;;;;;;;14.90;99.90;;;;;;4977444;28;1956;-47
2021/10/20 08:18:40;;;;;;;;;;;14.90;99.90;;;;;;4977563;28;803;-47
2021/10/20 08:21:06;;;;;;;;;;;14.90;99.90;;;;;;4978311;28;1142;-47
2021/10/20 08:23:32;;;;;;;;;;;14.90;99.90;;;;;;4996710;28;757;-47
2021/10/20 08:25:59;;;;;;;;;;;15.10;99.90;;;;;;4996775;28;900;-47
2021/10/20 08:28:26;;;;;;;;;;;15.20;99.90;;;;;;4996474;28;1244;-47
2021/10/20 08:30:53;;;;;;;;;;;15.20;99.90;;;;;;4996595;28;765;-47
2021/10/20 08:33:20;;;;;;;;;;;15.30;99.90;;;;;;4996821;28;875;-46
2021/10/20 08:35:45;;;;;;;;;;;15.40;99.90;;;;;;4996625;28;782;-47
2021/10/20 08:38:11;;;;;;;;;;;15.30;99.90;;;;;;4996698;28;1969;-47
2021/10/20 08:40:41;;;;;;;;;;;15.30;99.90;;;;;;4986973;28;848;-48
2021/10/20 08:43:08;;;;;;;;;;;15.30;99.90;;;;;;4976886;28;844;-47
2021/10/20 08:45:34;;;;;;;;;;;15.30;99.90;;;;;;4976812;28;905;-47
2021/10/20 08:48:00;;;;;;;;;;;15.20;99.90;;;;;;4977294;28;978;-47
2021/10/20 08:50:29;;;;;;;;;;;15.20;99.90;;;;;;4976919;28;908;-47
2021/10/20 08:52:57;;;;;;;;;;;15.20;99.90;;;;;;4977164;28;883;-47
2021/10/20 08:55:24;;;;;;;;;;;15.20;99.90;;;;;;4977183;28;826;-47
2021/10/20 08:57:51;;;;;;;;;;;15.20;99.90;;;;;;4973758;28;1966;-48
2021/10/20 09:00:17;;;;;;;;;;;15.20;99.90;;;;;;4957896;28;991;-48
2021/10/20 09:02:45;;;;;;;;;;;15.20;99.90;;;;;;4957572;28;838;-47
2021/10/20 09:05:12;;;;;;;;;;;15.20;99.90;;;;;;4956943;28;837;-47
2021/10/20 09:07:42;;;;;;;;;;;15.20;99.90;;;;;;4961358;28;941;-47
2021/10/20 09:10:09;;;;;;;;;;;15.20;99.90;;;;;;4966759;28;1044;-47
2021/10/20 09:12:37;;;;;;;;;;;15.20;99.90;;;;;;4980194;28;862;-47
2021/10/20 09:15:05;;;;;;;;;;;15.30;99.90;;;;;;4980361;28;770;-47
2021/10/20 09:17:48;;;;;;;;;;;15.30;99.90;;;;;;4979864;28;1964;-47
2021/10/20 09:20:16;;;;;;;;;;;15.30;99.90;;;;;;4980129;28;928;-47
2021/10/20 09:22:54;;;;;;;;;;;15.40;99.90;;;;;;4994667;28;1153;-47
2021/10/20 09:25:20;;;;;;;;;;;15.30;99.90;;;;;;4999776;28;901;-47
2021/10/20 09:27:46;;;;;;;;;;;15.40;99.90;;;;;;4999390;28;805;-47
2021/10/20 09:30:13;;;;;;;;;;;15.50;99.90;;;;;;4999933;28;1132;-48
2021/10/20 09:32:40;;;;;;;;;;;15.40;99.90;;;;;;4999628;28;878;-47
2021/10/20 09:35:07;;;;;;;;;;;15.40;99.90;;;;;;4999371;28;842;-47
2021/10/20 09:37:36;;;;;;;;;;;15.40;99.90;;;;;;4999430;28;1974;-47
2021/10/20 09:40:05;;;;;;;;;;;15.40;99.90;;;;;;4994398;28;777;-47
2021/10/20 09:42:41;;;;;;;;;;;15.40;99.90;;;;;;4979912;28;817;-47
2021/10/20 09:45:08;;;;;;;;;;;15.40;99.90;;;;;;4978833;28;1009;-46
2021/10/20 09:47:37;;;;;;;;;;;15.40;99.90;;;;;;4979977;28;894;-48
2021/10/20 09:50:06;;;;;;;;;;;15.40;99.90;;;;;;4977657;28;1494;-47
2021/10/20 09:52:53;;;;;;;;;;;15.40;99.90;;;;;;4995570;28;1137;-47
2021/10/20 09:55:27;;;;;;;;;;;15.40;99.90;;;;;;4972432;28;1212;-47
2021/10/20 09:57:54;;;;;;;;;;;15.40;99.90;;;;;;4958357;29;1968;-47
2021/10/20 10:00:20;;;;;;;;;;;15.40;99.90;;;;;;4958698;29;882;-47
2021/10/20 10:02:46;;;;;;;;;;;15.50;99.90;;;;;;4958581;29;962;-48
2021/10/20 10:05:12;;;;;;;;;;;15.50;99.90;;;;;;4942390;29;1018;-47
2021/10/20 10:07:38;;;;;;;;;;;15.50;99.90;;;;;;4958471;28;1201;-48
2021/10/20 10:10:06;;;;;;;;;;;15.50;99.90;;;;;;4958423;29;1110;-47
2021/10/20 10:12:33;;;;;;;;;;;15.50;99.90;;;;;;4958285;28;1463;-47
2021/10/20 10:15:06;;;;;;;;;;;15.50;99.90;;;;;;4961288;28;1023;-47
2021/10/20 10:17:36;;;;;;;;;;;15.50;99.90;;;;;;4957297;28;1902;-47
2021/10/20 10:20:10;;;;;;;;;;;15.50;99.90;;;;;;4958162;28;1197;-47
2021/10/20 10:22:52;;;;;;;;;;;15.50;99.90;;;;;;4958759;29;735;-47
2021/10/20 10:25:30;;;;;;;;;;;15.50;99.90;;;;;;4958069;29;842;-47
2021/10/20 10:28:00;;;;;;;;;;;15.50;99.90;;;;;;4958073;29;1101;-47
2021/10/20 10:30:26;;;;;;;;;;;15.50;99.90;;;;;;4961074;28;1364;-47
2021/10/20 10:32:57;;;;;;;;;;;15.50;99.90;;;;;;4989026;28;987;-47
2021/10/20 10:35:25;;;;;;;;;;;15.50;99.90;;;;;;4996938;28;931;-47
2021/10/20 10:38:01;;;;;;;;;;;15.50;99.90;;;;;;4996881;28;1902;-47
2021/10/20 10:40:32;;;;;;;;;;;15.50;99.90;;;;;;4972101;28;862;-47
2021/10/20 10:43:07;;;;;;;;;;;15.50;99.90;;;;;;4977251;28;883;-48
2021/10/20 10:45:34;;;;;;;;;;;15.50;99.90;;;;;;4960906;28;888;-47
2021/10/20 10:48:18;;;;;;;;;;;15.50;99.90;;;;;;4977280;28;1024;-48
2021/10/20 10:50:53;;;;;;;;;;;15.50;99.90;;;;;;4977802;28;999;-48
2021/10/20 10:53:45;;;;;;;;;;;15.50;99.90;;;;;;4977496;28;849;-47
2021/10/20 10:56:13;;;;;;;;;;;15.50;99.90;;;;;;4972218;28;1427;-47
2021/10/20 10:58:55;;;;;;;;;;;15.50;99.90;;;;;;4957271;29;1894;-47
2021/10/20 11:01:42;;;;;;;;;;;15.50;99.90;;;;;;4957275;29;893;-47
2021/10/20 11:04:24;;;;;;;;;;;15.50;99.90;;;;;;4957593;29;929;-47
2021/10/20 11:06:51;;;;;;;;;;;15.50;99.90;;;;;;4963085;28;1189;-47
2021/10/20 11:09:19;;;;;;;;;;;15.50;99.90;;;;;;4997648;28;794;-47
2021/10/20 11:11:46;;;;;;;;;;;15.50;99.90;;;;;;4977458;28;1179;-47
2021/10/20 11:14:14;;;;;;;;;;;15.50;99.90;;;;;;4977963;28;1125;-47
2021/10/20 11:16:40;;;;;;;;;;;15.50;99.90;;;;;;4978235;28;1906;-47
2021/10/20 11:19:06;;;;;;;;;;;15.50;99.90;;;;;;4978090;28;817;-47
2021/10/20 11:21:32;;;;;;;;;;;15.50;99.90;;;;;;4978276;28;777;-47
2021/10/20 11:23:59;;;;;;;;;;;15.50;99.90;;;;;;4977163;28;1386;-47
2021/10/20 11:26:25;;;;;;;;;;;15.50;99.90;;;;;;4978302;28;1119;-47
2021/10/20 11:28:51;;;;;;;;;;;15.50;99.90;;;;;;4977783;28;750;-47
2021/10/20 11:31:18;;;;;;;;;;;15.50;99.90;;;;;;4976712;28;1035;-47
2021/10/20 11:33:45;;;;;;;;;;;15.50;99.90;;;;;;4976707;28;897;-47
2021/10/20 11:36:20;;;;;;;;;;;15.50;99.90;;;;;;4977803;28;821;-47
2021/10/20 11:38:48;;;;;;;;;;;15.50;99.90;;;;;;4978313;28;1970;-47
2021/10/20 11:41:19;;;;;;;;;;;15.50;99.90;;;;;;4962348;28;984;-47
2021/10/20 11:43:52;;;;;;;;;;;15.50;99.90;;;;;;4958404;28;850;-47
2021/10/20 11:46:23;;;;;;;;;;;15.50;99.90;;;;;;4958512;28;763;-47
2021/10/20 11:48:51;;;;;;;;;;;15.50;99.90;;;;;;4958846;28;901;-47
2021/10/20 11:51:18;;;;;;;;;;;15.50;99.90;;;;;;4958441;28;858;-47
2021/10/20 11:53:47;;;;;;;;;;;15.50;99.90;;;;;;4958701;28;916;-47
2021/10/20 11:56:14;;;;;;;;;;;15.50;99.90;;;;;;4958510;28;783;-47
2021/10/20 11:58:42;;;;;;;;;;;15.50;99.90;;;;;;4995223;28;1967;-47
2021/10/20 12:01:08;;;;;;;;;;;15.50;99.90;;;;;;4995358;28;832;-47
2021/10/20 12:03:34;;;;;;;;;;;15.50;99.90;;;;;;4995483;28;786;-47
2021/10/20 12:06:06;;;;;;;;;;;15.50;99.90;;;;;;4995990;28;904;-47
2021/10/20 12:08:32;;;;;;;;;;;15.50;99.90;;;;;;5027310;28;1251;-47
2021/10/20 12:10:59;;;;;;;;;;;15.50;99.90;;;;;;5021691;28;1295;-47
2021/10/20 12:13:26;;;;;;;;;;;15.50;99.90;;;;;;5014804;28;974;-47
2021/10/20 12:15:53;;;;;;;;;;;15.50;99.90;;;;;;5014811;28;904;-47
2021/10/20 12:18:23;;;;;;;;;;;15.50;99.90;;;;;;5014660;28;1914;-47
2021/10/20 12:20:52;;;;;;;;;;;15.50;99.90;;;;;;5015351;28;1184;-47
2021/10/20 12:23:19;;;;;;;;;;;15.50;99.90;;;;;;4999190;28;1279;-47
2021/10/20 12:25:46;;;;;;;;;;;15.50;99.90;;;;;;5014834;28;1058;-47
2021/10/20 12:28:13;;;;;;;;;;;15.50;99.90;;;;;;5014604;28;931;-47
2021/10/20 12:30:40;;;;;;;;;;;15.50;99.90;;;;;;4976248;28;941;-47
2021/10/20 12:33:12;;;;;;;;;;;15.50;99.90;;;;;;4958283;28;909;-47
2021/10/20 12:35:50;;;;;;;;;;;15.50;99.90;;;;;;4958343;28;891;-47
2021/10/20 12:38:16;;;;;;;;;;;15.50;99.90;;;;;;4957297;28;1976;-47
2021/10/20 12:40:45;;;;;;;;;;;15.50;99.90;;;;;;4969638;28;1107;-47
2021/10/20 12:43:14;;;;;;;;;;;15.50;99.90;;;;;;4980868;28;766;-47
2021/10/20 12:45:40;;;;;;;;;;;15.50;99.90;;;;;;4980990;28;941;-47
2021/10/20 12:48:07;;;;;;;;;;;15.50;99.90;;;;;;4980829;28;853;-47
2021/10/20 12:50:35;;;;;;;;;;;15.50;99.90;;;;;;4981217;28;806;-47
2021/10/20 12:53:02;;;;;;;;;;;15.50;99.90;;;;;;4980716;28;861;-47
2021/10/20 12:55:28;;;;;;;;;;;15.50;99.90;;;;;;4980928;28;875;-47
2021/10/20 12:57:58;;;;;;;;;;;15.50;99.90;;;;;;4980791;28;1906;-47
2021/10/20 13:00:27;;;;;;;;;;;15.50;99.90;;;;;;4980854;28;813;-47
2021/10/20 13:02:55;;;;;;;;;;;15.50;99.90;;;;;;4971730;28;1344;-47
2021/10/20 13:05:22;;;;;;;;;;;15.50;99.90;;;;;;4961593;28;1007;-47
2021/10/20 13:07:53;;;;;;;;;;;15.50;99.90;;;;;;4981431;28;1208;-47
2021/10/20 13:10:21;;;;;;;;;;;15.50;99.90;;;;;;4991354;28;1145;-47
2021/10/20 13:12:56;;;;;;;;;;;15.50;99.90;;;;;;4979294;28;795;-47
2021/10/20 13:15:25;;;;;;;;;;;15.50;99.90;;;;;;4980428;28;939;-47
2021/10/20 13:17:52;;;;;;;;;;;15.50;99.90;;;;;;4979259;28;1910;-47
2021/10/20 13:20:21;;;;;;;;;;;15.50;99.90;;;;;;4980497;28;766;-47
2021/10/20 13:22:47;;;;;;;;;;;15.50;99.90;;;;;;4980615;28;896;-47
2021/10/20 13:25:15;;;;;;;;;;;15.50;99.90;;;;;;4979434;28;1393;-47
2021/10/20 13:27:41;;;;;;;;;;;15.50;99.90;;;;;;4978980;28;961;-47
2021/10/20 13:30:09;;;;;;;;;;;15.50;99.90;;;;;;4979836;28;885;-47
2021/10/20 13:32:35;;;;;;;;;;;15.50;99.90;;;;;;4980443;28;1124;-47
2021/10/20 13:35:02;;;;;;;;;;;15.50;99.90;;;;;;4981021;28;1042;-47
2021/10/20 13:37:30;;;;;;;;;;;15.60;99.90;;;;;;4979943;28;1899;-47
2021/10/20 13:39:58;;;;;;;;;;;15.50;99.90;;;;;;4979989;28;835;-47
2021/10/20 13:42:26;;;;;;;;;;;15.50;99.90;;;;;;4980035;28;1734;-47
2021/10/20 13:44:53;;;;;;;;;;;15.50;99.90;;;;;;4979775;28;938;-47
2021/10/20 13:47:20;;;;;;;;;;;15.60;99.90;;;;;;4979581;28;1007;-47
2021/10/20 13:49:47;;;;;;;;;;;15.50;99.90;;;;;;4979700;28;857;-47
2021/10/20 13:52:13;;;;;;;;;;;15.50;99.90;;;;;;4980114;28;841;-47
2021/10/20 13:54:39;;;;;;;;;;;15.50;99.90;;;;;;4979882;28;849;-47
2021/10/20 13:57:05;;;;;;;;;;;15.50;99.90;;;;;;4979772;28;1906;-47
2021/10/20 13:59:31;;;;;;;;;;;15.50;99.90;;;;;;4980044;28;898;-47
2021/10/20 14:01:58;;;;;;;;;;;15.50;99.90;;;;;;4978331;28;1023;-47
2021/10/20 14:04:24;;;;;;;;;;;15.50;99.90;;;;;;4979437;28;825;-47
2021/10/20 14:06:54;;;;;;;;;;;15.50;99.90;;;;;;4964055;28;1117;-47
2021/10/20 14:09:22;;;;;;;;;;;15.50;99.90;;;;;;4982361;28;1266;-47
2021/10/20 14:11:49;;;;;;;;;;;15.50;99.90;;;;;;4979065;28;1541;-48
2021/10/20 14:14:14;;;;;;;;;;;15.50;99.90;;;;;;4978095;28;987;-47
2021/10/20 14:16:40;;;;;;;;;;;15.50;99.90;;;;;;4979120;28;826;-47
2021/10/20 14:19:06;;;;;;;;;;;15.50;99.90;;;;;;4979097;28;1906;-47
2021/10/20 14:21:32;;;;;;;;;;;15.50;99.90;;;;;;4980175;28;1050;-47
2021/10/20 14:24:01;;;;;;;;;;;15.50;99.90;;;;;;4979547;28;861;-47
2021/10/20 14:26:28;;;;;;;;;;;15.50;99.90;;;;;;4978044;28;951;-47
2021/10/20 14:28:56;;;;;;;;;;;15.50;99.90;;;;;;4978781;28;1096;-47
2021/10/20 14:31:24;;;;;;;;;;;15.50;99.90;;;;;;4978792;28;873;-47
2021/10/20 14:33:51;;;;;;;;;;;15.50;99.90;;;;;;4979180;28;909;-47
2021/10/20 14:36:17;;;;;;;;;;;15.50;99.90;;;;;;4978001;28;953;-48
2021/10/20 14:38:43;;;;;;;;;;;15.50;99.90;;;;;;4979084;28;1981;-48
2021/10/20 14:41:12;;;;;;;;;;;15.50;99.90;;;;;;4979072;28;966;-47